TimeEST,TemperatureF,Dew PointF,Humidity,Sea Level PressureIn,VisibilityMPH,Wind Direction,Wind SpeedMPH,Gust SpeedMPH,PrecipitationIn,Events,Conditions,WindDirDegrees,DateUTC
12:54 AM,17.1,9.0,71,30.06,10.0,Variable,3.5,-,N/A,,Overcast,0,2013-01-21 05:54:00
1:03 AM,17.6,8.6,68,29.97,10.0,WNW,9.2,-,N/A,,Overcast,290,2013-01-21 06:03:00
1:54 AM,17.1,9.0,71,30.05,10.0,West,4.6,-,N/A,,Overcast,280,2013-01-21 06:54:00
2:42 AM,17.6,10.4,73,29.97,10.0,West,3.5,-,N/A,,Overcast,270,2013-01-21 07:42:00
2:54 AM,17.1,10.0,74,30.06,9.0,WSW,4.6,-,N/A,,Overcast,250,2013-01-21 07:54:00
3:54 AM,16.0,10.9,81,30.04,5.0,West,5.8,-,0.00,Snow,Light Snow,260,2013-01-21 08:54:00
4:54 AM,17.1,12.0,81,30.03,10.0,West,3.5,-,0.00,,Overcast,260,2013-01-21 09:54:00
5:54 AM,17.1,12.0,81,30.02,10.0,SW,5.8,-,0.00,,Overcast,230,2013-01-21 10:54:00
6:54 AM,17.1,12.0,81,30.01,9.0,WSW,9.2,-,N/A,,Overcast,240,2013-01-21 11:54:00
7:54 AM,18.0,10.9,74,30.01,10.0,WSW,9.2,-,0.00,,Overcast,250,2013-01-21 12:54:00
8:54 AM,19.0,12.9,77,30.01,2.0,WSW,12.7,-,0.00,Snow,Light Snow,250,2013-01-21 13:54:00
9:01 AM,19.4,12.2,74,29.89,1.5,WSW,11.5,-,0.00,Snow,Light Snow,240,2013-01-21 14:01:00
9:08 AM,19.4,14.0,80,29.90,3.0,WSW,10.4,-,0.00,Snow,Light Snow,250,2013-01-21 14:08:00
9:16 AM,19.4,14.0,80,29.89,4.0,WSW,8.1,-,0.00,Snow,Light Snow,240,2013-01-21 14:16:00
9:24 AM,19.4,14.0,80,29.89,2.5,WSW,8.1,-,0.00,Snow,Light Snow,240,2013-01-21 14:24:00
9:31 AM,19.4,14.0,80,29.89,1.8,WSW,8.1,-,0.00,Snow,Light Snow,240,2013-01-21 14:31:00
9:45 AM,19.4,15.8,86,29.89,2.0,WSW,9.2,18.4,0.00,Snow,Light Snow,250,2013-01-21 14:45:00
9:54 AM,19.0,14.0,81,30.00,2.5,WSW,10.4,-,0.00,Snow,Light Snow,240,2013-01-21 14:54:00
10:02 AM,19.4,14.0,80,29.88,3.0,SW,13.8,-,0.00,Snow,Light Snow,230,2013-01-21 15:02:00
10:13 AM,19.4,15.8,86,29.88,2.5,SW,11.5,-,0.00,Snow,Light Snow,230,2013-01-21 15:13:00
10:36 AM,19.4,15.8,86,29.87,2.0,WSW,10.4,-,0.00,Snow,Light Snow,240,2013-01-21 15:36:00
10:43 AM,19.4,15.8,86,29.87,1.8,SW,10.4,-,0.00,Snow,Light Snow,230,2013-01-21 15:43:00
10:54 AM,19.9,15.1,81,29.97,2.0,SW,11.5,-,0.00,Snow,Light Snow,230,2013-01-21 15:54:00
11:28 AM,21.2,15.8,80,29.84,4.0,SW,12.7,18.4,0.00,Snow,Light Snow,230,2013-01-21 16:28:00
11:54 AM,21.0,14.0,74,29.92,4.0,WSW,15.0,21.9,0.00,Snow,Light Snow,240,2013-01-21 16:54:00
12:02 PM,21.2,14.0,74,29.81,3.0,WSW,17.3,21.9,0.00,Snow,Light Snow,250,2013-01-21 17:02:00
12:15 PM,21.2,14.0,74,29.80,4.0,WSW,10.4,-,0.00,Snow,Light Snow,250,2013-01-21 17:15:00
12:54 PM,21.0,14.0,74,29.88,10.0,West,9.2,-,0.00,,Overcast,270,2013-01-21 17:54:00
1:54 PM,21.0,15.1,78,29.87,9.0,West,10.4,18.4,0.00,,Overcast,280,2013-01-21 18:54:00
2:07 PM,21.2,15.8,80,29.76,2.5,WNW,12.7,-,0.00,Snow,Light Snow,290,2013-01-21 19:07:00
2:17 PM,19.4,15.8,86,29.77,1.5,West,11.5,-,0.00,Snow,Light Snow,280,2013-01-21 19:17:00
2:27 PM,19.4,15.8,86,29.77,1.2,West,9.2,-,0.00,Snow,Light Snow,260,2013-01-21 19:27:00
2:40 PM,19.4,15.8,86,29.77,0.8,WSW,15.0,19.6,0.00,Snow,Light Snow,250,2013-01-21 19:40:00
2:48 PM,19.4,17.6,93,29.77,0.5,West,11.5,-,0.00,Fog-Snow,Snow,260,2013-01-21 19:48:00
2:54 PM,19.9,17.1,89,29.88,0.5,West,12.7,-,0.00,Fog-Snow,Snow,260,2013-01-21 19:54:00
3:01 PM,19.4,17.6,93,29.77,0.8,West,10.4,-,0.00,Snow,Light Snow,270,2013-01-21 20:01:00
3:13 PM,19.4,17.6,93,29.77,0.8,West,10.4,18.4,0.00,Snow,Light Snow,270,2013-01-21 20:13:00
3:19 PM,19.4,17.6,93,29.77,1.0,West,15.0,20.7,0.00,Snow,Light Snow,270,2013-01-21 20:19:00
3:43 PM,19.4,14.0,80,29.78,1.5,West,17.3,24.2,0.00,Snow,Light Snow,280,2013-01-21 20:43:00
3:47 PM,19.4,14.0,80,29.78,2.0,West,12.7,24.2,0.00,Snow,Light Snow,280,2013-01-21 20:47:00
3:54 PM,19.9,14.0,78,29.90,3.0,West,15.0,21.9,0.00,Snow,Light Snow,280,2013-01-21 20:54:00
3:57 PM,19.4,14.0,80,29.79,2.5,West,19.6,26.5,0.00,Snow,Light Snow,280,2013-01-21 20:57:00
4:07 PM,19.4,14.0,80,29.79,1.2,West,17.3,24.2,0.00,Snow,Light Snow,270,2013-01-21 21:07:00
4:29 PM,19.4,12.2,74,29.80,4.0,West,19.6,27.6,0.00,Snow,Light Snow,260,2013-01-21 21:29:00
4:38 PM,19.4,12.2,74,29.80,9.0,WSW,16.1,26.5,0.00,,Overcast,240,2013-01-21 21:38:00
4:54 PM,19.0,12.0,74,29.92,5.0,West,18.4,26.5,0.00,Snow,Light Snow,280,2013-01-21 21:54:00
5:10 PM,17.6,12.2,79,29.82,5.0,West,17.3,23.0,0.00,Snow,Light Snow,270,2013-01-21 22:10:00
5:37 PM,17.6,10.4,73,29.82,10.0,West,15.0,24.2,0.00,,Overcast,270,2013-01-21 22:37:00
5:54 PM,17.1,10.0,74,29.94,10.0,West,20.7,28.8,0.00,,Overcast,270,2013-01-21 22:54:00
6:54 PM,15.1,9.0,77,29.95,5.0,West,17.3,23.0,0.00,Snow,Light Snow,280,2013-01-21 23:54:00
6:59 PM,15.8,8.6,73,29.83,2.5,WNW,18.4,27.6,0.00,Snow,Light Snow,290,2013-01-21 23:59:00
7:10 PM,15.8,8.6,73,29.83,1.8,West,15.0,24.2,0.00,Snow,Light Snow,270,2013-01-22 00:10:00
7:20 PM,15.8,8.6,73,29.83,2.5,West,11.5,23.0,0.00,Snow,Light Snow,270,2013-01-22 00:20:00
7:33 PM,14.0,8.6,79,29.83,1.2,West,19.6,25.3,0.00,Snow,Light Snow,280,2013-01-22 00:33:00
7:54 PM,14.0,9.0,80,29.94,1.2,West,15.0,23.0,0.00,Snow,Light Snow,270,2013-01-22 00:54:00
8:08 PM,14.0,8.6,79,29.83,2.0,West,16.1,-,0.00,Snow,Light Snow,260,2013-01-22 01:08:00
8:19 PM,14.0,8.6,79,29.83,1.5,West,10.4,-,0.00,Snow,Light Snow,270,2013-01-22 01:19:00
8:24 PM,14.0,8.6,79,29.83,0.8,West,13.8,-,0.00,Snow,Light Snow,280,2013-01-22 01:24:00
8:50 PM,12.2,8.6,85,29.83,1.0,West,15.0,24.2,0.00,Snow,Light Snow,270,2013-01-22 01:50:00
8:54 PM,12.0,9.0,88,29.95,1.0,West,10.4,24.2,0.00,Snow,Light Snow,280,2013-01-22 01:54:00
9:03 PM,12.2,8.6,85,29.84,0.8,West,17.3,27.6,0.00,Snow,Light Snow,280,2013-01-22 02:03:00
9:15 PM,10.4,6.8,85,29.84,1.5,West,18.4,-,0.00,Snow,Light Snow,280,2013-01-22 02:15:00
9:28 PM,10.4,6.8,85,29.84,1.5,West,16.1,25.3,0.00,Snow,Light Snow,270,2013-01-22 02:28:00
9:35 PM,10.4,6.8,85,29.84,0.8,WNW,18.4,23.0,0.00,Snow,Light Snow,300,2013-01-22 02:35:00
9:54 PM,10.0,6.1,84,29.97,0.8,WNW,16.1,-,0.00,Snow,Light Snow,290,2013-01-22 02:54:00
10:18 PM,8.6,3.2,79,29.85,0.8,WNW,23.0,29.9,0.00,Snow,Light Snow,290,2013-01-22 03:18:00
10:26 PM,8.6,3.2,79,29.85,1.5,WNW,18.4,28.8,0.00,Snow,Light Snow,290,2013-01-22 03:26:00
10:29 PM,8.6,3.2,79,29.85,2.0,WNW,15.0,25.3,0.00,Snow,Light Snow,290,2013-01-22 03:29:00
10:54 PM,8.1,-0.9,67,29.98,3.0,West,18.4,29.9,0.00,,Overcast,280,2013-01-22 03:54:00
11:54 PM,7.0,-4.0,61,29.98,7.0,WNW,18.4,25.3,0.00,,Overcast,290,2013-01-22 04:54:00